Авиационная погода в Абакане

СКИДКИ НА СМАРТФОНЫ!

Регион: 
Погода METAR: 
UNAA 091530Z 36002MPS CAVOK 20/11 Q1008 R02/CLRD65 NOSIG RMK QFE733
Время наблюдения
2022-08-09T15:30:00Z
Температура C
20.0
Точка росы
11.0
Направление ветра
360
Скорость ветра (узлы)
4
Метео видимость
6.21
Облачность
CAVOK
Нижняя граница облачности (футы)
Явления погоды
Условия полета
VFR
Аэропорт подробнее: 

Скидки на навигаторы!